Time;durP1;ratioP1;P1;durP2;ratioP2;P2;SDS_P1;SDS_P2;PMS_P1;PMS_P2;Temp;Humidity;BMP_temperature;BMP_pressure;BME280_temperature;BME280_humidity;BME280_pressure;Samples;Min_cycle;Max_cycle;Signal;HPM_P1;HPM_P2
2021/12/12 00:01:36;;;;;;;84.43;30.70;;;;;;;2.92;86.41;101679.47;5044889;28;20420;-69
2021/12/12 00:04:13;;;;;;;75.13;30.33;;;;;;;2.78;87.79;101677.81;5044978;28;20412;-69
2021/12/12 00:06:45;;;;;;;80.93;32.87;;;;;;;3.06;86.21;101675.09;5044617;28;20405;-69
2021/12/12 00:09:24;;;;;;;84.70;31.87;;;;;;;3.20;85.49;101681.00;5044497;28;20417;-68
2021/12/12 00:11:49;;;;;;;82.17;31.03;;;;;;;3.16;85.57;101684.22;5038945;28;20491;-68
2021/12/12 00:14:21;;;;;;;70.47;30.10;;;;;;;3.33;84.76;101677.44;5024863;28;20902;-68
2021/12/12 00:16:47;;;;;;;72.13;30.07;;;;;;;3.01;86.53;101677.41;5057531;28;20420;-70
2021/12/12 00:19:13;;;;;;;68.97;30.87;;;;;;;3.02;86.08;101674.03;5024587;28;20424;-70
2021/12/12 00:21:41;;;;;;;83.23;31.70;;;;;;;2.90;86.92;101675.06;5024815;28;20171;-70
2021/12/12 00:24:09;;;;;;;77.40;32.60;;;;;;;3.35;84.90;101670.66;5026972;28;20464;-74
2021/12/12 00:26:34;;;;;;;79.37;32.67;;;;;;;3.20;86.04;101668.13;5037253;28;20450;-69
2021/12/12 00:28:59;;;;;;;86.87;30.47;;;;;;;3.42;85.29;101677.88;5024640;28;20464;-69
2021/12/12 00:31:25;;;;;;;81.23;34.10;;;;;;;3.29;84.79;101676.34;5024879;28;20197;-68
2021/12/12 00:33:56;;;;;;;78.57;30.40;;;;;;;3.26;84.85;101671.06;5040397;28;20193;-68
2021/12/12 00:36:23;;;;;;;82.83;30.00;;;;;;;3.11;85.81;101677.91;5030102;28;20194;-69
2021/12/12 00:38:54;;;;;;;77.47;29.57;;;;;;;3.53;84.78;101660.41;5025172;28;20433;-69
2021/12/12 00:41:27;;;;;;;74.97;31.20;;;;;;;3.49;83.00;101654.25;5024624;28;20421;-69
2021/12/12 00:43:53;;;;;;;92.50;32.10;;;;;;;3.61;83.75;101655.69;5023561;28;20421;-70
2021/12/12 00:46:21;;;;;;;76.73;29.57;;;;;;;3.05;85.11;101654.41;5024404;28;20704;-68
2021/12/12 00:48:48;;;;;;;73.60;29.67;;;;;;;3.35;85.10;101656.06;5024410;28;20556;-68
2021/12/12 00:51:16;;;;;;;79.13;31.50;;;;;;;3.54;84.38;101652.78;5029425;28;20467;-68
2021/12/12 00:53:42;;;;;;;71.83;28.93;;;;;;;3.52;84.74;101649.25;5044199;28;20550;-69
2021/12/12 00:56:08;;;;;;;76.47;29.70;;;;;;;3.53;84.82;101651.03;5043195;28;20428;-69
2021/12/12 00:58:33;;;;;;;85.77;32.00;;;;;;;3.34;85.01;101659.47;5044145;28;20498;-70
2021/12/12 01:01:26;;;;;;;84.60;30.67;;;;;;;3.28;84.98;101651.38;5044053;28;20166;-71
2021/12/12 01:03:59;;;;;;;34.30;15.87;;;;;;;11.72;78.94;101625.09;5036630;28;20183;-64
2021/12/12 01:06:26;;;;;;;37.53;19.00;;;;;;;12.10;76.16;101624.94;5023537;28;20421;-63
2021/12/12 01:08:55;;;;;;;51.00;26.40;;;;;;;6.19;72.60;101652.38;5024077;28;20449;-70
2021/12/12 01:11:32;;;;;;;41.67;23.80;;;;;;;5.16;76.73;101656.44;5053634;28;20421;-69
2021/12/12 01:13:59;;;;;;;41.37;23.17;;;;;;;4.49;78.99;101647.22;5038715;28;20436;-66
2021/12/12 01:16:29;;;;;;;48.00;24.90;;;;;;;4.14;81.33;101646.34;5040835;28;20398;-67
2021/12/12 01:19:26;;;;;;;47.60;23.50;;;;;;;3.55;83.59;101661.41;5039332;28;20797;-67
2021/12/12 01:21:55;;;;;;;44.87;24.10;;;;;;;3.95;82.86;101654.84;5040132;28;20527;-68
2021/12/12 01:24:26;;;;;;;47.60;25.27;;;;;;;3.79;83.46;101660.91;5040675;28;20777;-67
2021/12/12 01:26:54;;;;;;;51.37;25.60;;;;;;;4.01;83.00;101658.63;5040799;28;20427;-67
2021/12/12 01:29:20;;;;;;;48.17;24.17;;;;;;;3.86;83.67;101655.28;5040760;28;20809;-68
2021/12/12 01:31:49;;;;;;;54.23;27.67;;;;;;;4.27;82.24;101663.34;5038035;28;20971;-68
2021/12/12 01:34:22;;;;;;;56.13;24.73;;;;;;;3.99;82.60;101661.94;5021052;28;20190;-67
2021/12/12 01:39:33;;;;;;;60.07;26.70;;;;;;;3.79;83.51;101668.66;5020858;28;20674;-70
2021/12/12 01:42:01;;;;;;;50.23;25.60;;;;;;;4.05;82.16;101673.47;5020602;28;20418;-71
2021/12/12 01:44:32;;;;;;;56.27;26.07;;;;;;;3.95;82.72;101689.28;5020677;28;20421;-68
2021/12/12 01:47:19;;;;;;;48.23;25.90;;;;;;;4.01;82.48;101679.28;5035079;28;20673;-69
2021/12/12 01:49:47;;;;;;;51.00;24.87;;;;;;;4.10;82.50;101675.38;5038733;28;20421;-69
2021/12/12 01:52:16;;;;;;;49.10;25.70;;;;;;;4.13;82.70;101681.59;5033187;28;20523;-69
2021/12/12 01:54:45;;;;;;;54.27;27.00;;;;;;;4.19;82.02;101671.59;5038742;28;20435;-69
2021/12/12 01:57:21;;;;;;;50.30;25.77;;;;;;;4.35;81.06;101675.81;5040565;28;20451;-69
2021/12/12 01:59:48;;;;;;;45.27;25.80;;;;;;;4.27;81.16;101679.72;5023068;28;20439;-69
2021/12/12 02:02:18;;;;;;;45.60;24.87;;;;;;;4.18;81.99;101677.56;5040080;28;20409;-69
2021/12/12 02:04:49;;;;;;;53.63;25.47;;;;;;;4.31;81.01;101678.19;5040232;28;20412;-68
2021/12/12 02:07:21;;;;;;;46.33;25.60;;;;;;;4.10;81.63;101690.88;5039279;28;20762;-69
2021/12/12 02:09:48;;;;;;;47.20;26.27;;;;;;;4.05;82.55;101688.94;5039983;28;20463;-68
2021/12/12 02:12:14;;;;;;;45.77;25.00;;;;;;;4.04;82.59;101681.13;5040112;28;20497;-69
2021/12/12 02:14:41;;;;;;;41.57;23.07;;;;;;;4.23;82.04;101670.03;5040460;28;20441;-70
2021/12/12 02:17:14;;;;;;;45.67;24.50;;;;;;;4.17;81.46;101672.34;5039796;28;20198;-69
2021/12/12 02:19:48;;;;;;;48.57;23.90;;;;;;;4.01;82.45;101671.53;5031151;28;20512;-70
2021/12/12 02:36:00;;;;;;;45.77;23.87;;;;;;;4.43;80.93;101678.78;5039875;28;20423;-69
2021/12/12 02:38:31;;;;;;;44.90;24.73;;;;;;;4.41;80.60;101677.84;5031226;28;20469;-71
2021/12/12 02:41:00;;;;;;;45.20;25.23;;;;;;;4.43;80.56;101665.00;5020315;28;20186;-70
2021/12/12 02:43:30;;;;;;;43.97;24.67;;;;;;;4.79;79.89;101670.19;5019443;28;20418;-69
2021/12/12 02:45:57;;;;;;;37.20;22.63;;;;;;;4.87;78.92;101674.03;5019526;28;20381;-69
2021/12/12 02:48:28;;;;;;;40.53;24.77;;;;;;;4.59;79.27;101664.94;5035005;28;20416;-68
2021/12/12 02:50:56;;;;;;;44.27;24.13;;;;;;;4.64;79.51;101671.22;5019253;28;20432;-69
2021/12/12 02:53:28;;;;;;;40.80;23.33;;;;;;;4.90;78.44;101661.28;5019230;28;20418;-68
2021/12/12 02:56:08;;;;;;;41.03;22.87;;;;;;;4.96;78.13;101663.25;5025834;28;20452;-68
2021/12/12 02:58:33;;;;;;;43.37;24.93;;;;;;;5.02;78.66;101667.00;5037332;28;20845;-67
2021/12/12 03:01:18;;;;;;;42.33;23.83;;;;;;;4.82;78.57;101671.22;5038421;28;20388;-67
2021/12/12 03:03:45;;;;;;;45.20;24.53;;;;;;;4.72;79.18;101664.75;5036649;28;20280;-68
2021/12/12 03:06:13;;;;;;;42.73;24.87;;;;;;;4.95;78.85;101657.22;5039069;28;20425;-69
2021/12/12 03:08:40;;;;;;;46.20;25.80;;;;;;;4.91;78.02;101652.69;5023040;28;20416;-68
2021/12/12 03:11:06;;;;;;;39.63;22.53;;;;;;;4.86;78.08;101656.78;5019504;28;20672;-69
2021/12/12 03:13:32;;;;;;;43.33;23.17;;;;;;;4.73;79.09;101655.28;5018095;28;20444;-69
2021/12/12 03:15:58;;;;;;;39.07;23.60;;;;;;;5.19;77.50;101651.41;5019023;28;20491;-68
2021/12/12 03:18:27;;;;;;;40.30;23.10;;;;;;;5.35;77.52;101648.69;5032068;28;20530;-69
2021/12/12 03:20:57;;;;;;;39.83;23.80;;;;;;;5.23;77.33;101643.84;5038712;28;20178;-68
2021/12/12 03:23:26;;;;;;;40.73;23.00;;;;;;;5.22;77.57;101652.44;5037675;28;20470;-68
2021/12/12 03:25:59;;;;;;;36.77;23.37;;;;;;;5.06;78.07;101653.41;5038499;28;20810;-69
2021/12/12 03:28:26;;;;;;;38.13;22.97;;;;;;;5.30;77.67;101657.06;5025143;28;20723;-68
2021/12/12 03:30:54;;;;;;;35.13;23.97;;;;;;;5.31;76.90;101656.25;5018883;28;20487;-68
2021/12/12 03:33:20;;;;;;;34.30;22.93;;;;;;;5.43;77.08;101645.59;5018251;28;20440;-69
2021/12/12 03:35:51;;;;;;;35.87;23.73;;;;;;;5.19;77.59;101647.09;5018942;28;20449;-68
2021/12/12 03:38:17;;;;;;;35.23;22.60;;;;;;;4.74;79.15;101661.34;5031519;28;20478;-69
2021/12/12 03:40:44;;;;;;;41.80;23.60;;;;;;;4.83;78.78;101654.91;5038111;28;20516;-70
2021/12/12 03:43:10;;;;;;;36.13;22.47;;;;;;;5.14;78.58;101652.88;5038565;28;20486;-69
2021/12/12 03:45:36;;;;;;;34.30;23.33;;;;;;;5.13;78.15;101661.44;5038278;28;20430;-68
2021/12/12 03:48:08;;;;;;;36.67;20.97;;;;;;;5.02;79.66;101654.09;5027026;28;20186;-69
2021/12/12 03:50:35;;;;;;;43.20;22.03;;;;;;;5.28;78.03;101662.16;5018695;28;20433;-68
2021/12/12 03:53:01;;;;;;;36.50;22.17;;;;;;;5.46;76.84;101654.34;5018570;28;20480;-68
2021/12/12 03:55:27;;;;;;;36.03;21.80;;;;;;;5.37;77.60;101657.44;5017681;28;20429;-68
2021/12/12 03:57:53;;;;;;;37.00;23.10;;;;;;;5.50;77.12;101653.69;5036534;28;20563;-68
2021/12/12 04:00:24;;;;;;;33.37;19.97;;;;;;;4.76;79.01;101664.88;5022022;28;20450;-68
2021/12/12 04:02:49;;;;;;;38.57;23.37;;;;;;;5.11;78.67;101653.63;5018303;28;20424;-69
2021/12/12 04:05:15;;;;;;;39.67;23.80;;;;;;;4.87;80.15;101661.09;5018755;28;20440;-68
2021/12/12 04:07:40;;;;;;;40.53;23.13;;;;;;;5.18;79.67;101660.88;5018606;28;20456;-68
2021/12/12 04:10:08;;;;;;;41.60;23.40;;;;;;;5.48;78.73;101659.59;5018454;28;20182;-69
2021/12/12 04:12:33;;;;;;;38.53;24.03;;;;;;;5.22;78.12;101665.38;5051723;28;20262;-68
2021/12/12 04:14:58;;;;;;;38.47;23.63;;;;;;;5.11;79.08;101663.09;5018399;28;20692;-69
2021/12/12 04:17:27;;;;;;;40.10;24.70;;;;;;;5.43;79.17;101668.88;5028127;28;20479;-68
2021/12/12 04:19:55;;;;;;;40.70;25.70;;;;;;;5.66;77.88;101670.78;5039085;28;20171;-68
2021/12/12 04:22:21;;;;;;;41.10;24.20;;;;;;;5.45;78.05;101675.84;5037700;28;20499;-69
2021/12/12 04:24:50;;;;;;;47.43;24.50;;;;;;;5.48;78.22;101682.88;5038738;28;20455;-68
2021/12/12 04:27:17;;;;;;;41.90;25.43;;;;;;;5.68;77.30;101683.78;5029058;28;20232;-68
2021/12/12 04:29:45;;;;;;;46.00;25.90;;;;;;;5.43;78.60;101676.63;5018139;28;20412;-68
2021/12/12 04:32:15;;;;;;;45.80;27.07;;;;;;;5.43;78.59;101684.38;5017979;28;20833;-68
2021/12/12 04:34:46;;;;;;;48.93;27.53;;;;;;;5.45;78.52;101670.69;5018406;28;20414;-68
2021/12/12 04:37:12;;;;;;;52.67;28.67;;;;;;;5.73;77.73;101682.28;5018932;28;20721;-68
2021/12/12 04:39:41;;;;;;;51.43;29.30;;;;;;;5.52;77.94;101677.03;5018066;28;20434;-68
2021/12/12 04:42:20;;;;;;;50.10;28.50;;;;;;;5.92;77.14;101668.44;5017994;28;20509;-68
2021/12/12 04:44:52;;;;;;;60.83;29.80;;;;;;;5.89;76.86;101674.38;5018142;28;20870;-68
2021/12/12 04:50:22;;;;;;;51.60;28.60;;;;;;;5.64;77.64;101663.75;5040780;28;20412;-67
2021/12/12 04:53:03;;;;;;;51.67;28.80;;;;;;;5.57;78.46;101667.78;5041082;28;20464;-69
2021/12/12 04:55:48;;;;;;;46.40;27.77;;;;;;;6.07;76.64;101653.63;5040953;28;20670;-69
2021/12/12 04:58:37;;;;;;;52.90;29.67;;;;;;;6.20;76.11;101664.50;5039802;28;20451;-69
2021/12/12 05:01:24;;;;;;;47.00;27.47;;;;;;;6.04;77.11;101656.06;5040415;28;20452;-67
2021/12/12 05:03:52;;;;;;;48.27;28.57;;;;;;;6.34;75.70;101642.66;5040988;28;20404;-69
2021/12/12 05:07:04;;;;;;;51.33;27.60;;;;;;;5.62;78.14;101652.47;5041085;28;20521;-68
2021/12/12 05:09:34;;;;;;;50.00;27.37;;;;;;;5.67;79.00;101657.03;5032194;28;20434;-68
2021/12/12 05:12:04;;;;;;;50.30;28.13;;;;;;;6.17;76.58;101649.72;5053812;28;20843;-68
2021/12/12 05:14:35;;;;;;;59.50;28.70;;;;;;;5.56;78.74;101646.22;5053593;28;20422;-69
2021/12/12 05:17:09;;;;;;;47.60;28.83;;;;;;;5.84;78.07;101639.66;5025691;28;20726;-69
2021/12/12 05:19:37;;;;;;;50.27;27.57;;;;;;;5.99;77.10;101642.03;5040482;28;20426;-68
2021/12/12 05:22:10;;;;;;;47.47;28.03;;;;;;;6.40;75.95;101640.31;5040740;28;20498;-68
2021/12/12 05:24:36;;;;;;;48.17;26.73;;;;;;;6.03;77.77;101636.19;5029867;28;20399;-71
2021/12/12 05:27:10;;;;;;;53.83;28.90;;;;;;;6.13;78.18;101636.56;5039636;28;20411;-68
2021/12/12 05:29:39;;;;;;;43.60;27.17;;;;;;;6.25;77.41;101639.66;5059607;28;20421;-69
2021/12/12 05:32:07;;;;;;;49.23;25.47;;;;;;;6.31;75.56;101637.34;5021408;28;20428;-68
2021/12/12 05:34:35;;;;;;;49.27;27.60;;;;;;;6.27;76.11;101632.00;5022143;28;20453;-68
2021/12/12 05:37:01;;;;;;;49.43;26.90;;;;;;;6.19;77.08;101642.03;5021248;28;20432;-68
2021/12/12 05:39:28;;;;;;;50.43;26.93;;;;;;;6.35;76.71;101644.41;5020821;28;20477;-68
2021/12/12 05:41:55;;;;;;;43.47;26.20;;;;;;;6.39;75.96;101642.84;5053126;28;20442;-68
2021/12/12 05:44:22;;;;;;;45.37;27.07;;;;;;;6.15;76.57;101640.13;5034790;28;20479;-68
2021/12/12 05:46:47;;;;;;;41.90;25.27;;;;;;;6.11;77.92;101631.34;5040496;28;20395;-67
2021/12/12 05:49:13;;;;;;;46.77;26.30;;;;;;;5.92;77.64;101629.63;5040447;28;20421;-68
2021/12/12 05:51:38;;;;;;;44.83;27.60;;;;;;;6.15;77.26;101634.94;5040725;28;20237;-68
2021/12/12 05:54:05;;;;;;;49.87;26.07;;;;;;;6.21;77.15;101635.19;5028610;28;20241;-67
2021/12/12 05:56:34;;;;;;;45.93;27.30;;;;;;;6.35;76.52;101644.41;5020524;28;20225;-68
2021/12/12 05:59:00;;;;;;;47.00;26.37;;;;;;;6.06;77.98;101645.78;5020770;28;20421;-69
2021/12/12 06:01:26;;;;;;;41.30;26.27;;;;;;;6.24;77.52;101650.88;5020452;28;20418;-69
2021/12/12 06:03:52;;;;;;;48.33;25.90;;;;;;;5.99;77.34;101651.53;5029993;28;20437;-69
2021/12/12 06:06:30;;;;;;;41.67;24.20;;;;;;;5.85;78.58;101641.41;5040322;28;20503;-69
2021/12/12 06:09:01;;;;;;;44.80;26.27;;;;;;;5.85;78.86;101645.72;5040246;28;20180;-68
2021/12/12 06:11:29;;;;;;;41.87;22.63;;;;;;;5.52;79.99;101640.81;5040079;28;20474;-70
2021/12/12 06:13:55;;;;;;;44.80;24.70;;;;;;;5.85;79.88;101637.97;5029860;28;20525;-68
2021/12/12 06:16:21;;;;;;;38.47;25.93;;;;;;;6.10;79.32;101633.84;5051457;28;20396;-68
2021/12/12 06:19:01;;;;;;;40.43;22.10;;;;;;;5.18;80.70;101634.13;5039361;28;20454;-68
2021/12/12 06:21:28;;;;;;;42.37;24.57;;;;;;;5.78;79.79;101628.13;5039751;28;20209;-69
2021/12/12 06:23:53;;;;;;;40.23;23.73;;;;;;;6.00;78.78;101625.69;5037028;28;20447;-68
2021/12/12 06:26:20;;;;;;;42.60;23.40;;;;;;;5.81;79.00;101621.41;5031315;28;20397;-68
2021/12/12 06:28:47;;;;;;;40.37;25.03;;;;;;;5.81;80.28;101625.72;5019823;28;20505;-68
2021/12/12 06:31:12;;;;;;;42.13;24.80;;;;;;;5.46;80.76;101625.03;5020817;28;20696;-68
2021/12/12 06:33:39;;;;;;;37.73;20.83;;;;;;;5.79;81.57;101619.56;5031049;28;20397;-68
2021/12/12 06:36:10;;;;;;;41.33;22.63;;;;;;;5.83;79.98;101629.22;5054984;28;20189;-68
2021/12/12 06:38:38;;;;;;;39.37;22.73;;;;;;;5.79;80.30;101624.75;5045525;28;20487;-68
2021/12/12 06:41:06;;;;;;;31.60;21.07;;;;;;;5.69;80.26;101628.63;5038758;28;20562;-68
2021/12/12 06:43:31;;;;;;;37.83;21.30;;;;;;;5.64;80.26;101622.38;5039551;28;20773;-68
2021/12/12 06:45:58;;;;;;;35.17;21.27;;;;;;;5.49;80.84;101625.16;5039806;28;20409;-68
2021/12/12 06:48:23;;;;;;;33.80;21.20;;;;;;;5.76;79.62;101619.44;5038648;28;20193;-67
2021/12/12 06:50:52;;;;;;;32.03;19.70;;;;;;;5.72;80.24;101613.25;5024814;28;20473;-68
2021/12/12 06:53:21;;;;;;;32.20;19.73;;;;;;;5.80;79.61;101616.16;5019857;28;20181;-68
2021/12/12 06:55:47;;;;;;;41.37;20.73;;;;;;;5.69;79.48;101608.81;5019156;28;20392;-68
2021/12/12 06:58:14;;;;;;;33.70;20.53;;;;;;;5.65;79.90;101611.22;5018429;28;20469;-68
2021/12/12 07:00:41;;;;;;;28.13;18.50;;;;;;;5.69;79.32;101603.63;5019578;28;20380;-69
2021/12/12 07:03:07;;;;;;;31.37;19.10;;;;;;;6.06;79.34;101602.69;5019081;28;20388;-69
2021/12/12 07:05:34;;;;;;;33.90;18.70;;;;;;;5.62;80.50;101601.63;5018243;28;20636;-69
2021/12/12 07:08:00;;;;;;;28.70;18.50;;;;;;;5.72;79.59;101596.03;5019077;28;20225;-68
2021/12/12 07:10:28;;;;;;;25.73;17.80;;;;;;;5.86;79.49;101600.91;5018872;28;20457;-69
2021/12/12 07:12:56;;;;;;;25.63;18.00;;;;;;;5.87;80.27;101600.09;5019000;28;20501;-69
2021/12/12 07:15:27;;;;;;;25.87;18.30;;;;;;;5.73;80.53;101584.84;5019347;28;20420;-68
2021/12/12 07:17:58;;;;;;;24.20;18.33;;;;;;;5.66;80.42;101577.66;5022235;28;20484;-68
2021/12/12 07:20:24;;;;;;;31.60;19.73;;;;;;;5.32;81.33;101583.94;5030802;28;20480;-68
2021/12/12 07:22:50;;;;;;;26.57;16.37;;;;;;;7.36;79.88;101568.84;5038360;28;20406;-68
2021/12/12 07:25:16;;;;;;;28.37;17.47;;;;;;;7.25;78.52;101554.56;5037744;28;20658;-72
2021/12/12 07:27:41;;;;;;;23.87;16.03;;;;;;;5.99;78.80;101563.53;5038196;28;20178;-69
2021/12/12 07:30:08;;;;;;;29.03;17.90;;;;;;;5.65;81.11;101567.25;5022282;28;20831;-70
2021/12/12 07:32:36;;;;;;;28.53;17.27;;;;;;;5.38;81.44;101571.25;5038403;28;20441;-72
2021/12/12 07:35:01;;;;;;;26.35;16.95;;;;;;;5.57;81.71;101567.81;5042057;28;20673;-70
2021/12/12 07:37:28;;;;;;;28.87;16.80;;;;;;;5.59;81.66;101559.19;5035038;28;20197;-70
2021/12/12 07:39:54;;;;;;;33.00;17.73;;;;;;;5.79;80.48;101571.31;5038557;28;20563;-67
2021/12/12 07:42:19;;;;;;;26.40;16.40;;;;;;;5.65;80.83;101559.47;5020863;28;20482;-70
2021/12/12 07:44:45;;;;;;;22.80;15.67;;;;;;;5.85;80.50;101558.63;5038171;28;20563;-69
2021/12/12 07:47:13;;;;;;;29.13;16.40;;;;;;;5.65;80.63;101562.94;5038110;28;20465;-66
2021/12/12 07:49:42;;;;;;;25.37;14.77;;;;;;;5.62;80.78;101564.53;5038680;28;20201;-66
2021/12/12 07:52:13;;;;;;;24.30;14.87;;;;;;;6.02;79.63;101564.53;5033604;28;20476;-67
2021/12/12 07:54:39;;;;;;;24.20;14.87;;;;;;;5.45;80.75;101562.06;5033673;28;20421;-67
2021/12/12 07:57:05;;;;;;;24.27;15.63;;;;;;;5.31;81.58;101556.28;5038252;28;20449;-69
2021/12/12 07:59:33;;;;;;;24.63;15.67;;;;;;;5.70;80.71;101547.63;5021189;28;20193;-68
2021/12/12 08:02:00;;;;;;;26.13;15.43;;;;;;;5.72;80.93;101558.91;5017601;28;20521;-68
2021/12/12 08:04:28;;;;;;;24.60;15.90;;;;;;;5.43;80.75;101547.34;5018229;28;20418;-68
2021/12/12 08:06:54;;;;;;;23.90;15.40;;;;;;;5.60;81.99;101551.50;5018246;28;20421;-69
2021/12/12 08:09:21;;;;;;;24.67;16.63;;;;;;;5.42;80.96;101553.31;5018445;28;20731;-68
2021/12/12 08:11:47;;;;;;;27.17;15.10;;;;;;;5.70;81.18;101548.50;5036271;28;20280;-68
2021/12/12 08:14:16;;;;;;;25.83;15.07;;;;;;;5.78;80.16;101546.25;5037530;28;20499;-68
2021/12/12 08:16:42;;;;;;;24.10;13.80;;;;;;;5.07;81.35;101556.09;5038048;28;20174;-66
2021/12/12 08:19:08;;;;;;;20.00;13.80;;;;;;;5.72;81.66;101545.97;5037925;28;20509;-66
2021/12/12 08:21:33;;;;;;;20.10;13.33;;;;;;;5.33;81.74;101549.50;5042108;28;20201;-66
2021/12/12 08:24:06;;;;;;;21.50;15.37;;;;;;;5.62;81.70;101552.47;5060724;28;20213;-66
2021/12/12 08:26:33;;;;;;;21.00;13.30;;;;;;;5.66;80.54;101545.72;5064148;28;20405;-68
2021/12/12 08:28:59;;;;;;;19.63;13.93;;;;;;;5.67;81.98;101538.03;5065354;28;20393;-67
2021/12/12 08:31:26;;;;;;;36.80;15.33;;;;;;;5.01;83.01;101533.44;5063037;28;20422;-69
2021/12/12 08:33:51;;;;;;;28.53;13.90;;;;;;;5.61;82.18;101542.06;5062107;28;20173;-69
2021/12/12 08:36:16;;;;;;;20.70;14.67;;;;;;;5.37;83.29;101540.16;5061597;28;20863;-69
2021/12/12 08:38:42;;;;;;;25.73;15.50;;;;;;;5.65;83.89;101521.53;5061580;28;20201;-67
2021/12/12 08:41:07;;;;;;;28.67;14.17;;;;;;;5.38;84.48;101522.13;5061326;28;20212;-67
2021/12/12 08:43:33;;;;;;;23.60;15.30;;;;;;;5.42;84.55;101522.28;5061431;28;20220;-67
2021/12/12 08:46:11;;;;;;;24.00;13.50;;;;;;;5.54;83.25;101507.28;5044625;28;20248;-67
2021/12/12 08:48:45;;;;;;;22.27;14.00;;;;;;;5.42;84.10;101509.34;5008664;28;20183;-66
2021/12/12 08:51:30;;;;;;;21.33;13.40;;;;;;;5.04;85.30;101512.88;5033519;28;20470;-67
2021/12/12 08:54:01;;;;;;;19.33;14.43;;;;;;;5.34;83.54;101512.47;5054364;28;20449;-66
2021/12/12 08:56:41;;;;;;;23.40;13.47;;;;;;;5.29;85.35;101511.41;5052414;28;20434;-68
2021/12/12 08:59:08;;;;;;;22.00;14.40;;;;;;;5.54;84.16;101520.22;5042386;28;20724;-66
2021/12/12 09:01:34;;;;;;;22.33;13.83;;;;;;;5.63;83.35;101517.13;5050208;28;20835;-69
2021/12/12 09:04:02;;;;;;;21.10;13.37;;;;;;;5.66;84.04;101522.44;5031456;28;20508;-68
2021/12/12 09:06:34;;;;;;;23.83;13.97;;;;;;;5.65;84.32;101516.38;5051864;28;20223;-67
2021/12/12 09:09:12;;;;;;;16.90;11.73;;;;;;;5.61;83.76;101519.66;5044544;28;20420;-68
2021/12/12 09:11:44;;;;;;;20.43;13.97;;;;;;;5.74;84.26;101513.31;5047670;28;20435;-68
2021/12/12 09:14:32;;;;;;;16.00;10.20;;;;;;;5.62;84.53;101518.84;5036748;28;20395;-68
2021/12/12 09:17:10;;;;;;;17.27;11.13;;;;;;;5.78;84.45;101517.78;5055119;28;20901;-67
2021/12/12 09:19:52;;;;;;;11.27;8.67;;;;;;;5.73;83.65;101516.69;5040738;28;20443;-70
2021/12/12 09:22:36;;;;;;;11.20;8.43;;;;;;;6.03;83.50;101503.28;5014547;28;20447;-67
2021/12/12 09:25:16;;;;;;;12.53;9.50;;;;;;;6.40;82.30;101502.19;5047695;28;20402;-69
2021/12/12 09:27:45;;;;;;;15.03;10.37;;;;;;;6.23;82.75;101501.50;5034808;28;20436;-68
2021/12/12 09:30:22;;;;;;;11.83;8.60;;;;;;;5.84;83.66;101520.63;5029021;28;20408;-68
2021/12/12 09:33:26;;;;;;;13.13;8.47;;;;;;;5.75;84.86;101515.09;5033738;28;20445;-69
2021/12/12 09:36:03;;;;;;;11.80;8.37;;;;;;;5.98;84.42;101504.81;5027573;28;20387;-68
2021/12/12 09:38:48;;;;;;;8.60;6.90;;;;;;;5.88;84.38;101509.56;5040229;28;20508;-67
2021/12/12 09:41:20;;;;;;;9.63;7.27;;;;;;;5.88;84.46;101512.16;5055352;28;20412;-67
2021/12/12 09:43:48;;;;;;;7.03;6.33;;;;;;;5.96;84.64;101506.44;5041062;28;20511;-68
2021/12/12 09:46:20;;;;;;;8.53;6.60;;;;;;;5.74;84.45;101500.38;5034187;28;20497;-68
2021/12/12 09:52:01;;;;;;;8.00;7.10;;;;;;;6.32;83.17;101508.75;5024046;28;20440;-68
2021/12/12 09:54:36;;;;;;;7.40;6.30;;;;;;;6.13;83.74;101492.50;5042133;28;20456;-68
2021/12/12 09:57:20;;;;;;;8.03;6.23;;;;;;;5.95;84.67;101510.69;5048849;28;20460;-69
2021/12/12 10:00:07;;;;;;;7.57;6.87;;;;;;;6.28;83.50;101494.81;5034437;28;20813;-68
2021/12/12 10:02:41;;;;;;;8.53;7.53;;;;;;;6.32;83.32;101498.38;5050445;28;20436;-69
2021/12/12 10:05:36;;;;;;;7.10;6.40;;;;;;;6.32;83.75;101507.06;5037017;28;20527;-69
2021/12/12 10:08:09;;;;;;;8.33;7.10;;;;;;;6.39;83.22;101506.47;5040394;28;20395;-69
2021/12/12 10:10:51;;;;;;;6.60;5.90;;;;;;;6.51;82.47;101497.41;5042825;28;20439;-69
2021/12/12 10:13:22;;;;;;;10.10;6.30;;;;;;;6.23;83.65;101498.91;5051597;28;20464;-70
2021/12/12 10:15:53;;;;;;;7.63;6.83;;;;;;;6.19;83.14;101484.09;5031839;28;20474;-70
2021/12/12 10:18:38;;;;;;;8.50;7.10;;;;;;;6.33;83.47;101482.94;5048227;28;20513;-70
2021/12/12 10:21:13;;;;;;;7.90;7.13;;;;;;;6.24;83.08;101493.78;5035373;28;20455;-69
2021/12/12 10:23:51;;;;;;;8.27;7.47;;;;;;;6.29;83.61;101480.16;5041487;28;20432;-69
2021/12/12 10:26:32;;;;;;;8.03;7.23;;;;;;;6.28;82.94;101476.69;5025858;28;20492;-70
2021/12/12 10:29:10;;;;;;;8.20;7.40;;;;;;;6.31;83.00;101489.75;5054420;28;20403;-69
2021/12/12 10:31:58;;;;;;;8.87;7.93;;;;;;;6.49;82.10;101474.03;5044479;28;20718;-70
2021/12/12 10:34:39;;;;;;;7.43;6.37;;;;;;;6.17;83.51;101489.22;5040248;28;20414;-70
2021/12/12 10:37:04;;;;;;;6.53;5.93;;;;;;;6.23;83.60;101475.63;5033389;28;20442;-70
2021/12/12 10:39:34;;;;;;;7.73;6.93;;;;;;;6.63;82.92;101479.75;5037069;28;20553;-70
2021/12/12 10:42:05;;;;;;;8.00;7.10;;;;;;;6.15;83.76;101475.31;5038433;28;20285;-69
2021/12/12 10:44:50;;;;;;;7.63;6.83;;;;;;;6.24;83.96;101478.25;5033873;28;20411;-70
2021/12/12 10:47:23;;;;;;;8.30;6.60;;;;;;;6.37;83.73;101473.56;5039125;28;20695;-70
2021/12/12 10:50:02;;;;;;;7.10;6.47;;;;;;;6.39;83.40;101474.50;5039207;28;20551;-70
2021/12/12 10:52:43;;;;;;;8.20;6.87;;;;;;;6.52;83.29;101473.25;5040298;28;20495;-70
2021/12/12 10:55:21;;;;;;;7.40;6.70;;;;;;;6.52;82.76;101481.03;5026395;28;20458;-70
2021/12/12 10:57:57;;;;;;;7.00;6.30;;;;;;;6.31;83.98;101468.16;5038288;28;20460;-71
2021/12/12 11:00:26;;;;;;;7.23;6.53;;;;;;;6.46;83.71;101454.91;5019545;28;20553;-71
2021/12/12 11:03:17;;;;;;;6.33;5.73;;;;;;;6.40;83.28;101466.78;5035334;28;20475;-69
2021/12/12 11:05:51;;;;;;;6.60;6.00;;;;;;;6.34;83.48;101465.69;5040941;28;20419;-69
2021/12/12 11:08:35;;;;;;;6.83;6.20;;;;;;;5.97;85.46;101466.78;5068124;28;20451;-69
2021/12/12 11:11:08;;;;;;;6.70;6.10;;;;;;;6.31;84.58;101461.25;5037046;28;20538;-69
2021/12/12 11:13:45;;;;;;;7.00;6.27;;;;;;;6.44;83.85;101453.94;5040112;28;20867;-69
2021/12/12 11:16:19;;;;;;;7.40;6.70;;;;;;;6.46;83.80;101460.97;5041474;28;20456;-70
2021/12/12 11:18:55;;;;;;;7.73;7.00;;;;;;;6.75;83.02;101455.97;5040861;28;20475;-69
2021/12/12 11:21:26;;;;;;;7.83;7.03;;;;;;;6.43;83.27;101470.31;5050125;28;20454;-70
2021/12/12 11:23:57;;;;;;;8.03;7.23;;;;;;;6.38;84.08;101468.44;5045693;28;20834;-68
2021/12/12 11:26:34;;;;;;;7.60;6.97;;;;;;;6.53;83.65;101462.06;5042729;28;20396;-70
2021/12/12 11:29:05;;;;;;;8.30;7.50;;;;;;;6.52;83.25;101465.47;5059765;28;20503;-68
2021/12/12 11:31:52;;;;;;;8.07;7.30;;;;;;;6.55;82.86;101463.03;5050618;28;20723;-70
2021/12/12 11:34:18;;;;;;;7.73;7.03;;;;;;;6.43;84.13;101465.13;5037428;28;20390;-67
2021/12/12 11:37:21;;;;;;;9.13;8.20;;;;;;;6.38;84.09;101462.38;5041692;28;20414;-69
2021/12/12 11:39:54;;;;;;;8.00;7.30;;;;;;;6.31;85.33;101456.06;5045260;28;20395;-68
2021/12/12 11:42:24;;;;;;;9.17;8.27;;;;;;;6.71;84.00;101456.69;5037199;28;20410;-69
2021/12/12 11:45:04;;;;;;;8.20;7.40;;;;;;;6.24;85.55;101456.69;5037127;28;20428;-68
2021/12/12 11:48:00;;;;;;;7.83;7.13;;;;;;;6.30;85.21;101458.59;5039809;28;20425;-68
2021/12/12 11:50:29;;;;;;;9.03;8.17;;;;;;;6.45;84.67;101463.50;5040258;28;20497;-68
2021/12/12 11:53:15;;;;;;;8.00;7.20;;;;;;;6.43;84.77;101444.41;5022493;28;20421;-68
2021/12/12 11:55:50;;;;;;;10.77;8.33;;;;;;;6.44;85.22;101452.25;5026933;28;20428;-68
2021/12/12 11:58:37;;;;;;;10.07;9.00;;;;;;;6.67;84.64;101440.16;5009383;28;20510;-71
2021/12/12 12:01:12;;;;;;;9.67;8.37;;;;;;;6.02;87.15;101462.69;5025480;28;20519;-71